Carnival Spirit — 9HA3097 — position and weather

sailwx.info

Track history (hours):
 
Tides and Currents Weather Stations Pressure Air Temp Water Temp Dewpoint Dewpoint Depression Visibility Wind Speed Wind Dir Waves Ship Positions

Carnival Spirit

Last reported at 2018-Dec-10 13:07 UTC. Time now 2018-Dec-11 06:27 UTC.
Position S 32°32' E 153°12'.

Length 293 m; draft 8.2 m.

Type: Ship. MMSI: 229136000.

Date/timePositionNaut miles runAvg speedWind from/ knotsBaromVisibWave heightAir tempDewpointWater temp
2018-Dec-10 13:07S 32°32' E 153°12'216.0
2018-Dec-10 13:00S 32°33' E 153°10'816.5
2018-Dec-10 12:30S 32°39' E 153°03'917.3
2018-Dec-10 12:00S 32°44' E 152°55'917.4
2018-Dec-10 11:30S 32°50' E 152°47'817.3
2018-Dec-10 11:01S 32°56' E 152°39'917.5
2018-Dec-10 10:31S 33°01' E 152°31'917.5
2018-Dec-10 10:00S 33°07' E 152°23'917.1
2018-Dec-10 09:30S 33°13' E 152°16'816.8
2018-Dec-10 09:00S 33°18' E 152°08'917.0
2018-Dec-10 08:30S 33°24' E 152°00'917.5
2018-Dec-10 08:00S 33°29' E 151°52'917.2
2018-Dec-10 07:30S 33°35' E 151°44'917.2
2018-Dec-10 07:01S 33°40' E 151°37'816.9
2018-Dec-10 06:31S 33°46' E 151°29'815.8
2018-Dec-10 06:00S 33°51' E 151°21'5 9.9
2018-Dec-10 05:30S 33°51' E 151°15'2 4.3
2018-Dec-10 05:00S 33°51' E 151°13'0 0.2
2018-Dec-10 04:22S 33°52' E 151°13'0 0.0
2018-Dec-10 03:58S 33°52' E 151°13'0 0.0
2018-Dec-10 03:28S 33°52' E 151°13'0 0.0
2018-Dec-10 02:25S 33°52' E 151°13'0 0.0
2018-Dec-10 01:55S 33°52' E 151°13'0 0.0
2018-Dec-10 01:28S 33°52' E 151°13'0 0.0
2018-Dec-10 00:58S 33°52' E 151°13'0 0.0
2018-Dec-10 00:28S 33°52' E 151°13'0 0.0
2018-Dec-09 23:58S 33°52' E 151°13'0 0.0
2018-Dec-09 23:25S 33°52' E 151°13'0 0.0
2018-Dec-09 22:55S 33°52' E 151°13'0 0.0
2018-Dec-09 22:28S 33°52' E 151°13'0 0.0
2018-Dec-09 21:58S 33°52' E 151°13'0 0.0
2018-Dec-09 21:28S 33°52' E 151°13'0 0.0
2018-Dec-09 20:58S 33°52' E 151°13'0 0.0
2018-Dec-09 20:28S 33°52' E 151°13'0 0.0
2018-Dec-09 19:55S 33°52' E 151°13'0 0.0
2018-Dec-09 19:28S 33°52' E 151°13'0 1.0
2018-Dec-09 19:00S 33°51' E 151°13'4 8.2
2018-Dec-09 18:31S 33°50' E 151°17'612.3
2018-Dec-09 18:00S 33°48' E 151°25'510.4
2018-Dec-09 17:30S 33°44' E 151°28'510.1
2018-Dec-09 17:00S 33°41' E 151°33'510.3
2018-Dec-09 16:30S 33°37' E 151°37'510.2
2018-Dec-09 16:00S 33°33' E 151°41'511.0
2018-Dec-09 15:30S 33°29' E 151°46'611.1
2018-Dec-09 15:00S 33°25' E 151°51'712.5
2018-Dec-09 14:27S 33°20' E 151°56'816.5
2018-Dec-09 13:58S 33°15' E 152°03'816.6
2018-Dec-09 13:30S 33°09' E 152°09'815.3
2018-Dec-09 13:00S 33°04' E 152°16'713.4
2018-Dec-09 12:30S 32°59' E 152°21'612.4
2018-Dec-09 12:00S 32°54' E 152°27'4 8.7
2018-Dec-09 11:30S 32°51' E 152°30'4 8.5
2018-Dec-09 11:00S 32°48' E 152°34'4 8.7
2018-Dec-09 10:30S 32°45' E 152°37'5 9.2
2018-Dec-09 10:00S 32°42' E 152°41'612.2
2018-Dec-09 09:30S 32°38' E 152°46'612.7
2018-Dec-09 09:00S 32°32' E 152°50'713.1
2018-Dec-09 08:28S 32°25' E 152°52'9 0.2
2018-Dec-07 16:39S 32°33' E 152°58'211.2
2018-Dec-07 16:30S 32°35' E 152°57'510.9
2018-Dec-07 16:01S 32°40' E 152°55'610.4
2018-Dec-07 15:28S 32°43' E 152°50'613.4
2018-Dec-07 15:00S 32°47' E 152°44'815.4
2018-Dec-07 14:30S 32°52' E 152°37'815.4
2018-Dec-07 14:00S 32°57' E 152°30'714.8
2018-Dec-07 13:30S 33°03' E 152°25'612.9
2018-Dec-07 13:00S 33°07' E 152°19'510.6
2018-Dec-07 12:30S 33°11' E 152°14'510.2
2018-Dec-07 12:00S 33°14' E 152°10'6 9.4
2018-Dec-07 11:24S 33°18' E 152°05'5 9.7
2018-Dec-07 10:55S 33°21' E 152°01'17 9.7
2018-Dec-07 09:12S 33°33' E 151°46'7 9.7
2018-Dec-07 08:26S 33°38' E 151°40'4 9.7
2018-Dec-07 08:00S 33°41' E 151°36'5 9.9
2018-Dec-07 07:30S 33°44' E 151°32'5 9.9
2018-Dec-07 07:00S 33°48' E 151°28'5 9.8
2018-Dec-07 06:30S 33°51' E 151°23'5 9.7
2018-Dec-07 06:00S 33°50' E 151°18'4 8.4
2018-Dec-07 05:30S 33°51' E 151°13'0 0.7
2018-Dec-07 04:59S 33°52' E 151°13'0 0.0
2018-Dec-07 04:26S 33°52' E 151°13'0 0.0
2018-Dec-07 03:59S 33°52' E 151°13'0 0.0
2018-Dec-07 03:29S 33°52' E 151°13'0 0.0
2018-Dec-07 02:29S 33°52' E 151°13'0 0.0
2018-Dec-07 01:59S 33°52' E 151°13'0 0.0
2018-Dec-07 01:29S 33°52' E 151°13'0 0.0
2018-Dec-07 00:59S 33°52' E 151°13'0 0.0
2018-Dec-07 00:26S 33°52' E 151°13'0 0.0
2018-Dec-06 23:56S 33°52' E 151°13'0 0.0
2018-Dec-06 23:29S 33°52' E 151°13'0 0.0
2018-Dec-06 22:59S 33°52' E 151°13'0 0.0
2018-Dec-06 22:29S 33°52' E 151°13'0 0.0
2018-Dec-06 21:59S 33°52' E 151°13'0 0.0
2018-Dec-06 21:29S 33°52' E 151°13'0 0.0
2018-Dec-06 20:59S 33°52' E 151°13'0 0.0
2018-Dec-06 20:29S 33°52' E 151°13'0 0.0
2018-Dec-06 19:59S 33°52' E 151°13'0 0.0
2018-Dec-06 19:26S 33°52' E 151°13'0 0.0
2018-Dec-06 18:59S 33°52' E 151°13'0 0.0
2018-Dec-06 18:26S 33°52' E 151°13'0 0.0
2018-Dec-06 17:59S 33°52' E 151°13'0 0.2
2018-Dec-06 17:30S 33°51' E 151°13'2 4.9
2018-Dec-06 17:00S 33°51' E 151°15'611.1
2018-Dec-06 16:30S 33°50' E 151°22'610.9
2018-Dec-06 16:00S 33°46' E 151°27'612.1
2018-Dec-06 15:30S 33°42' E 151°32'612.5
2018-Dec-06 15:00S 33°37' E 151°37'612.5
2018-Dec-06 14:30S 33°33' E 151°43'2518.8
2018-Dec-06 13:10S 33°15' E 152°05'318.9
2018-Dec-06 13:00S 33°13' E 152°07'1019.3
2018-Dec-06 12:30S 33°07' E 152°15'1019.3
2018-Dec-06 12:00S 32°60' E 152°24'918.8
2018-Dec-06 11:30S 32°53' E 152°32'918.6
2018-Dec-06 11:00S 32°47' E 152°40'1019.1
2018-Dec-06 10:30S 32°40' E 152°48'  
2018-Dec-02 07:45S 22°24' E 166°46'417.2
2018-Dec-02 07:30S 22°23' E 166°41'817.1
2018-Dec-02 07:00S 22°21' E 166°33'816.6
2018-Dec-02 06:30S 22°18' E 166°24'2 5.0
2018-Dec-02 06:00S 22°16' E 166°26'0 0.6
2018-Dec-02 05:24S 22°16' E 166°26'0 0.0
2018-Dec-02 05:00S 22°16' E 166°26'0 0.0
2018-Dec-02 04:30S 22°16' E 166°26'0 0.0
2018-Dec-02 04:00S 22°16' E 166°26'0 0.0
2018-Dec-02 03:30S 22°16' E 166°26'0 0.0
2018-Dec-02 03:00S 22°16' E 166°26'0 0.0
2018-Dec-02 02:30S 22°16' E 166°26'0 0.0
2018-Dec-02 02:00S 22°16' E 166°26'0 0.0
2018-Dec-02 01:30S 22°16' E 166°26'0 0.0
2018-Dec-02 01:00S 22°16' E 166°26'0 0.0
2018-Dec-02 00:30S 22°16' E 166°26'0 0.0
2018-Dec-02 00:00S 22°16' E 166°26'0 0.0
2018-Dec-01 23:30S 22°16' E 166°26'0 0.0
2018-Dec-01 23:00S 22°16' E 166°26'0 0.0
2018-Dec-01 22:27S 22°16' E 166°26'0 0.0
2018-Dec-01 22:00S 22°16' E 166°26'0 0.0
2018-Dec-01 21:30S 22°16' E 166°26'0 0.1
2018-Dec-01 21:00S 22°16' E 166°26'0 0.7
2018-Dec-01 20:30S 22°16' E 166°26'4 7.9
2018-Dec-01 20:00S 22°16' E 166°21'815.7
2018-Dec-01 19:30S 22°21' E 166°15'510.6
2018-Dec-01 19:00S 22°24' E 166°11'611.6
2018-Dec-01 18:28S 22°29' E 166°06'611.7
2018-Dec-01 17:57S 22°33' E 166°01'  
Track history (hours):
 
Tides and Currents Weather Stations Pressure Air Temp Water Temp Dewpoint Dewpoint Depression Visibility Wind Speed Wind Dir Waves Ship Positions

Carnival Spirit

Last reported at 2018-Dec-10 13:07 UTC. Time now 2018-Dec-11 06:27 UTC.
Position S 32°32' E 153°12'.

Length 293 m; draft 8.2 m.

Type: Ship. MMSI: 229136000.

Date/timePositionNaut miles runAvg speedWind from/ knotsBaromVisibWave heightAir tempDewpointWater temp
2018-Dec-10 13:07S 32°32' E 153°12'216.0
2018-Dec-10 13:00S 32°33' E 153°10'816.5
2018-Dec-10 12:30S 32°39' E 153°03'917.3
2018-Dec-10 12:00S 32°44' E 152°55'917.4
2018-Dec-10 11:30S 32°50' E 152°47'817.3
2018-Dec-10 11:01S 32°56' E 152°39'917.5
2018-Dec-10 10:31S 33°01' E 152°31'917.5
2018-Dec-10 10:00S 33°07' E 152°23'917.1
2018-Dec-10 09:30S 33°13' E 152°16'816.8
2018-Dec-10 09:00S 33°18' E 152°08'917.0
2018-Dec-10 08:30S 33°24' E 152°00'917.5
2018-Dec-10 08:00S 33°29' E 151°52'917.2
2018-Dec-10 07:30S 33°35' E 151°44'917.2
2018-Dec-10 07:01S 33°40' E 151°37'816.9
2018-Dec-10 06:31S 33°46' E 151°29'815.8
2018-Dec-10 06:00S 33°51' E 151°21'5 9.9
2018-Dec-10 05:30S 33°51' E 151°15'2 4.3
2018-Dec-10 05:00S 33°51' E 151°13'0 0.2
2018-Dec-10 04:22S 33°52' E 151°13'0 0.0
2018-Dec-10 03:58S 33°52' E 151°13'0 0.0
2018-Dec-10 03:28S 33°52' E 151°13'0 0.0
2018-Dec-10 02:25S 33°52' E 151°13'0 0.0
2018-Dec-10 01:55S 33°52' E 151°13'0 0.0
2018-Dec-10 01:28S 33°52' E 151°13'0 0.0
2018-Dec-10 00:58S 33°52' E 151°13'0 0.0
2018-Dec-10 00:28S 33°52' E 151°13'0 0.0
2018-Dec-09 23:58S 33°52' E 151°13'0 0.0
2018-Dec-09 23:25S 33°52' E 151°13'0 0.0
2018-Dec-09 22:55S 33°52' E 151°13'0 0.0
2018-Dec-09 22:28S 33°52' E 151°13'0 0.0
2018-Dec-09 21:58S 33°52' E 151°13'0 0.0
2018-Dec-09 21:28S 33°52' E 151°13'0 0.0
2018-Dec-09 20:58S 33°52' E 151°13'0 0.0
2018-Dec-09 20:28S 33°52' E 151°13'0 0.0
2018-Dec-09 19:55S 33°52' E 151°13'0 0.0
2018-Dec-09 19:28S 33°52' E 151°13'0 1.0
2018-Dec-09 19:00S 33°51' E 151°13'4 8.2
2018-Dec-09 18:31S 33°50' E 151°17'612.3
2018-Dec-09 18:00S 33°48' E 151°25'510.4
2018-Dec-09 17:30S 33°44' E 151°28'510.1
2018-Dec-09 17:00S 33°41' E 151°33'510.3
2018-Dec-09 16:30S 33°37' E 151°37'510.2
2018-Dec-09 16:00S 33°33' E 151°41'511.0
2018-Dec-09 15:30S 33°29' E 151°46'611.1
2018-Dec-09 15:00S 33°25' E 151°51'712.5
2018-Dec-09 14:27S 33°20' E 151°56'816.5
2018-Dec-09 13:58S 33°15' E 152°03'816.6
2018-Dec-09 13:30S 33°09' E 152°09'815.3
2018-Dec-09 13:00S 33°04' E 152°16'713.4
2018-Dec-09 12:30S 32°59' E 152°21'612.4
2018-Dec-09 12:00S 32°54' E 152°27'4 8.7
2018-Dec-09 11:30S 32°51' E 152°30'4 8.5
2018-Dec-09 11:00S 32°48' E 152°34'4 8.7
2018-Dec-09 10:30S 32°45' E 152°37'5 9.2
2018-Dec-09 10:00S 32°42' E 152°41'612.2
2018-Dec-09 09:30S 32°38' E 152°46'612.7
2018-Dec-09 09:00S 32°32' E 152°50'713.1
2018-Dec-09 08:28S 32°25' E 152°52'9 0.2
2018-Dec-07 16:39S 32°33' E 152°58'211.2
2018-Dec-07 16:30S 32°35' E 152°57'510.9
2018-Dec-07 16:01S 32°40' E 152°55'610.4
2018-Dec-07 15:28S 32°43' E 152°50'613.4
2018-Dec-07 15:00S 32°47' E 152°44'815.4
2018-Dec-07 14:30S 32°52' E 152°37'815.4
2018-Dec-07 14:00S 32°57' E 152°30'714.8
2018-Dec-07 13:30S 33°03' E 152°25'612.9
2018-Dec-07 13:00S 33°07' E 152°19'510.6
2018-Dec-07 12:30S 33°11' E 152°14'510.2
2018-Dec-07 12:00S 33°14' E 152°10'6 9.4
2018-Dec-07 11:24S 33°18' E 152°05'5 9.7
2018-Dec-07 10:55S 33°21' E 152°01'17 9.7
2018-Dec-07 09:12S 33°33' E 151°46'7 9.7
2018-Dec-07 08:26S 33°38' E 151°40'4 9.7
2018-Dec-07 08:00S 33°41' E 151°36'5 9.9
2018-Dec-07 07:30S 33°44' E 151°32'5 9.9
2018-Dec-07 07:00S 33°48' E 151°28'5 9.8
2018-Dec-07 06:30S 33°51' E 151°23'5 9.7
2018-Dec-07 06:00S 33°50' E 151°18'4 8.4
2018-Dec-07 05:30S 33°51' E 151°13'0 0.7
2018-Dec-07 04:59S 33°52' E 151°13'0 0.0
2018-Dec-07 04:26S 33°52' E 151°13'0 0.0
2018-Dec-07 03:59S 33°52' E 151°13'0 0.0
2018-Dec-07 03:29S 33°52' E 151°13'0 0.0
2018-Dec-07 02:29S 33°52' E 151°13'0 0.0
2018-Dec-07 01:59S 33°52' E 151°13'0 0.0
2018-Dec-07 01:29S 33°52' E 151°13'0 0.0
2018-Dec-07 00:59S 33°52' E 151°13'0 0.0
2018-Dec-07 00:26S 33°52' E 151°13'0 0.0
2018-Dec-06 23:56S 33°52' E 151°13'0 0.0
2018-Dec-06 23:29S 33°52' E 151°13'0 0.0
2018-Dec-06 22:59S 33°52' E 151°13'0 0.0
2018-Dec-06 22:29S 33°52' E 151°13'0 0.0
2018-Dec-06 21:59S 33°52' E 151°13'0 0.0
2018-Dec-06 21:29S 33°52' E 151°13'0 0.0
2018-Dec-06 20:59S 33°52' E 151°13'0 0.0
2018-Dec-06 20:29S 33°52' E 151°13'0 0.0
2018-Dec-06 19:59S 33°52' E 151°13'0 0.0
2018-Dec-06 19:26S 33°52' E 151°13'0 0.0
2018-Dec-06 18:59S 33°52' E 151°13'0 0.0
2018-Dec-06 18:26S 33°52' E 151°13'0 0.0
2018-Dec-06 17:59S 33°52' E 151°13'0 0.2
2018-Dec-06 17:30S 33°51' E 151°13'2 4.9
2018-Dec-06 17:00S 33°51' E 151°15'611.1
2018-Dec-06 16:30S 33°50' E 151°22'610.9
2018-Dec-06 16:00S 33°46' E 151°27'612.1
2018-Dec-06 15:30S 33°42' E 151°32'612.5
2018-Dec-06 15:00S 33°37' E 151°37'612.5
2018-Dec-06 14:30S 33°33' E 151°43'2518.8
2018-Dec-06 13:10S 33°15' E 152°05'318.9
2018-Dec-06 13:00S 33°13' E 152°07'1019.3
2018-Dec-06 12:30S 33°07' E 152°15'1019.3
2018-Dec-06 12:00S 32°60' E 152°24'918.8
2018-Dec-06 11:30S 32°53' E 152°32'918.6
2018-Dec-06 11:00S 32°47' E 152°40'1019.1
2018-Dec-06 10:30S 32°40' E 152°48'  
2018-Dec-02 07:45S 22°24' E 166°46'417.2
2018-Dec-02 07:30S 22°23' E 166°41'817.1
2018-Dec-02 07:00S 22°21' E 166°33'816.6
2018-Dec-02 06:30S 22°18' E 166°24'2 5.0
2018-Dec-02 06:00S 22°16' E 166°26'0 0.6
2018-Dec-02 05:24S 22°16' E 166°26'0 0.0
2018-Dec-02 05:00S 22°16' E 166°26'0 0.0
2018-Dec-02 04:30S 22°16' E 166°26'0 0.0
2018-Dec-02 04:00S 22°16' E 166°26'0 0.0
2018-Dec-02 03:30S 22°16' E 166°26'0 0.0
2018-Dec-02 03:00S 22°16' E 166°26'0 0.0
2018-Dec-02 02:30S 22°16' E 166°26'0 0.0
2018-Dec-02 02:00S 22°16' E 166°26'0 0.0
2018-Dec-02 01:30S 22°16' E 166°26'0 0.0
2018-Dec-02 01:00S 22°16' E 166°26'0 0.0
2018-Dec-02 00:30S 22°16' E 166°26'0 0.0
2018-Dec-02 00:00S 22°16' E 166°26'0 0.0
2018-Dec-01 23:30S 22°16' E 166°26'0 0.0
2018-Dec-01 23:00S 22°16' E 166°26'0 0.0
2018-Dec-01 22:27S 22°16' E 166°26'0 0.0
2018-Dec-01 22:00S 22°16' E 166°26'0 0.0
2018-Dec-01 21:30S 22°16' E 166°26'0 0.1
2018-Dec-01 21:00S 22°16' E 166°26'0 0.7
2018-Dec-01 20:30S 22°16' E 166°26'4 7.9
2018-Dec-01 20:00S 22°16' E 166°21'815.7
2018-Dec-01 19:30S 22°21' E 166°15'510.6
2018-Dec-01 19:00S 22°24' E 166°11'611.6
2018-Dec-01 18:28S 22°29' E 166°06'611.7
2018-Dec-01 17:57S 22°33' E 166°01'  

Dump ship's entire track history